Time;durP1;ratioP1;P1;durP2;ratioP2;P2;SDS_P1;SDS_P2;PMS_P1;PMS_P2;Temp;Humidity;BMP_temperature;BMP_pressure;BME280_temperature;BME280_humidity;BME280_pressure;Samples;Min_cycle;Max_cycle;Signal;HPM_P1;HPM_P2
2023/02/14 00:01:59;;;;;;;50.70;28.10;;;;;;;2.41;100.00;99745.35;52542;1256;1016258;-78
2023/02/14 00:04:25;;;;;;;37.40;21.80;;;;;;;2.43;100.00;99742.24;52553;1256;1070366;-80
2023/02/14 00:06:52;;;;;;;33.70;19.80;;;;;;;2.43;100.00;99746.79;52510;1251;1017487;-78
2023/02/14 00:09:19;;;;;;;36.70;23.20;;;;;;;2.45;100.00;99746.42;52456;1257;1072336;-78
2023/02/14 00:11:45;;;;;;;41.80;24.60;;;;;;;2.45;100.00;99740.16;52510;1251;1016155;-80
2023/02/14 00:16:58;;;;;;;47.70;30.60;;;;;;;2.46;100.00;99731.70;52503;1256;1051188;-77
2023/02/14 00:19:25;;;;;;;49.80;33.30;;;;;;;2.47;100.00;99731.91;52489;1255;1016683;-80
2023/02/14 00:21:51;;;;;;;36.90;24.40;;;;;;;2.48;100.00;99734.83;52509;1257;1058190;-77
2023/02/14 00:24:20;;;;;;;40.10;26.00;;;;;;;2.44;100.00;99734.73;52515;1251;1016375;-77
2023/02/14 00:26:47;;;;;;;31.40;20.90;;;;;;;2.41;100.00;99733.46;52540;1254;1072669;-77
2023/02/14 00:29:24;;;;;;;34.50;21.60;;;;;;;2.41;100.00;99735.89;52518;1253;1018016;-79
2023/02/14 00:31:51;;;;;;;35.10;23.60;;;;;;;2.41;100.00;99736.55;52557;1251;1071552;-78
2023/02/14 00:34:18;;;;;;;28.30;18.60;;;;;;;2.42;100.00;99738.45;52533;1256;1016247;-77
2023/02/14 00:36:44;;;;;;;33.20;19.40;;;;;;;2.40;100.00;99732.05;52490;1255;1073881;-80
2023/02/14 00:39:12;;;;;;;25.40;17.00;;;;;;;2.39;100.00;99728.60;52520;1257;1016195;-80
2023/02/14 00:41:39;;;;;;;28.80;17.70;;;;;;;2.37;100.00;99729.59;52532;1253;1053770;-79
2023/02/14 00:44:06;;;;;;;33.00;19.30;;;;;;;2.33;100.00;99733.05;52507;1256;1016427;-77
2023/02/14 00:46:33;;;;;;;34.20;19.10;;;;;;;2.31;100.00;99735.09;52504;1251;1061228;-77
2023/02/14 00:49:00;;;;;;;33.50;18.30;;;;;;;2.31;100.00;99733.15;52532;1257;1016217;-80
2023/02/14 00:51:27;;;;;;;27.60;17.20;;;;;;;2.33;100.00;99733.10;52520;1257;1073949;-80
2023/02/14 00:53:53;;;;;;;22.90;14.30;;;;;;;2.34;100.00;99733.02;52527;1257;1015613;-80
2023/02/14 00:56:20;;;;;;;26.50;17.40;;;;;;;2.30;100.00;99734.28;52553;1252;1071515;-77
2023/02/14 00:58:47;;;;;;;30.20;17.80;;;;;;;2.29;100.00;99734.96;52513;1252;1019163;-81
2023/02/14 01:01:14;;;;;;;30.50;18.30;;;;;;;2.32;100.00;99733.45;52524;1255;1070243;-80
2023/02/14 01:03:40;;;;;;;28.40;19.00;;;;;;;2.35;100.00;99729.49;52504;1257;1016459;-77
2023/02/14 01:06:07;;;;;;;33.50;20.00;;;;;;;2.36;100.00;99727.32;52512;1257;1053389;-79
2023/02/14 01:08:34;;;;;;;35.80;21.80;;;;;;;2.38;100.00;99733.31;52477;1256;1015977;-80
2023/02/14 01:11:11;;;;;;;35.50;23.50;;;;;;;2.39;100.00;99735.39;52533;1257;1057789;-77
2023/02/14 01:13:38;;;;;;;34.90;23.00;;;;;;;2.40;100.00;99737.63;52509;1257;1058502;-77
2023/02/14 01:16:10;;;;;;;38.00;23.90;;;;;;;2.42;100.00;99732.27;52376;1259;1016323;-80
2023/02/14 01:18:36;;;;;;;33.50;22.60;;;;;;;2.45;100.00;99732.80;52495;1257;1075010;-80
2023/02/14 01:21:18;;;;;;;35.80;25.40;;;;;;;2.37;100.00;99738.11;52561;1251;1018465;-80
2023/02/14 01:23:47;;;;;;;35.80;22.00;;;;;;;2.31;100.00;99740.27;52548;1257;1071719;-78
2023/02/14 01:26:14;;;;;;;28.40;16.60;;;;;;;2.25;100.00;99736.36;52572;1251;1015854;-77
2023/02/14 01:28:40;;;;;;;32.60;17.00;;;;;;;2.26;100.00;99735.84;52519;1251;1018316;-77
2023/02/14 01:31:12;;;;;;;30.20;16.90;;;;;;;2.30;100.00;99729.11;52545;1257;1062129;-77
2023/02/14 01:33:39;;;;;;;34.60;18.60;;;;;;;2.36;100.00;99726.66;52518;1257;1070902;-79
2023/02/14 01:36:06;;;;;;;29.40;16.50;;;;;;;2.39;100.00;99728.80;52517;1251;1016469;-76
2023/02/14 01:38:32;;;;;;;35.80;20.90;;;;;;;2.37;100.00;99728.23;52485;1256;1053887;-79
2023/02/14 01:40:59;;;;;;;48.10;28.90;;;;;;;2.37;100.00;99725.94;52526;1257;1016388;-76
2023/02/14 01:43:26;;;;;;;41.90;25.10;;;;;;;2.40;100.00;99728.66;52571;1251;1061150;-77
2023/02/14 01:45:52;;;;;;;42.20;26.70;;;;;;;2.42;100.00;99726.48;52490;1257;1016296;-80
2023/02/14 01:48:20;;;;;;;42.20;27.00;;;;;;;2.43;100.00;99728.41;52562;1251;1073752;-79
2023/02/14 01:50:46;;;;;;;45.30;24.80;;;;;;;2.44;100.00;99732.25;52516;1256;1015691;-79
2023/02/14 01:53:33;;;;;;;41.00;24.60;;;;;;;2.46;100.00;99733.96;52480;1257;1069654;-79
2023/02/14 01:56:06;;;;;;;37.50;21.60;;;;;;;2.48;100.00;99730.30;52509;1252;1071501;-79
2023/02/14 01:58:35;;;;;;;44.70;21.20;;;;;;;2.50;100.00;99729.34;52521;1256;1071725;-78
2023/02/14 02:01:02;;;;;;;41.70;22.80;;;;;;;2.51;100.00;99733.18;52407;1253;1016074;-79
2023/02/14 02:03:36;;;;;;;40.20;23.00;;;;;;;2.51;100.00;99733.84;52503;1253;1016312;-79
2023/02/14 02:06:25;;;;;;;52.70;26.10;;;;;;;2.54;100.00;99732.42;52502;1256;1071493;-77
2023/02/14 02:09:19;;;;;;;46.40;24.60;;;;;;;2.53;100.00;99730.93;52559;1257;1073461;-80
2023/02/14 02:11:45;;;;;;;46.00;24.70;;;;;;;2.51;100.00;99726.05;52459;1256;1070995;-78
2023/02/14 02:14:16;;;;;;;49.20;26.20;;;;;;;2.51;100.00;99720.09;52545;1257;1016582;-77
2023/02/14 02:16:46;;;;;;;52.50;27.20;;;;;;;2.49;100.00;99719.16;52496;1255;1050895;-77
2023/02/14 02:19:27;;;;;;;45.10;24.60;;;;;;;2.50;100.00;99721.85;52515;1257;1016303;-79
2023/02/14 02:22:24;;;;;;;42.20;21.90;;;;;;;2.51;100.00;99718.52;52531;1251;1051845;-80
2023/02/14 02:24:55;;;;;;;39.70;21.50;;;;;;;2.54;100.00;99724.80;52474;1257;1054991;-80
2023/02/14 02:27:33;;;;;;;36.80;21.00;;;;;;;2.54;100.00;99722.30;52515;1266;1051296;-78
2023/02/14 02:30:11;;;;;;;45.00;24.00;;;;;;;2.55;100.00;99719.99;52527;1252;1053308;-80
2023/02/14 02:33:05;;;;;;;43.70;21.90;;;;;;;2.56;100.00;99720.64;52547;1257;1052266;-80
2023/02/14 02:35:44;;;;;;;41.00;20.00;;;;;;;2.57;100.00;99718.09;52489;1256;1053389;-77
2023/02/14 02:38:38;;;;;;;38.90;22.60;;;;;;;2.59;100.00;99716.69;52508;1257;1050757;-77
2023/02/14 02:41:24;;;;;;;41.10;21.50;;;;;;;2.60;100.00;99719.12;52498;1256;1050831;-79
2023/02/14 02:44:15;;;;;;;37.80;21.90;;;;;;;2.60;100.00;99715.54;52515;1257;1050899;-79
2023/02/14 02:46:51;;;;;;;36.80;20.70;;;;;;;2.60;100.00;99716.77;52522;1257;1050969;-80
2023/02/14 02:53:07;;;;;;;31.50;18.40;;;;;;;2.58;100.00;99725.97;52546;1264;1051576;-77
2023/02/14 02:58:40;;;;;;;35.10;20.00;;;;;;;2.57;100.00;99730.77;52517;1251;1053445;-79
2023/02/14 03:01:32;;;;;;;43.00;28.50;;;;;;;2.56;100.00;99734.17;52535;1256;1015999;-77
2023/02/14 03:06:48;;;;;;;44.30;21.10;;;;;;;2.57;100.00;99735.01;52517;1251;1051295;-77
2023/02/14 03:09:18;;;;;;;32.50;18.40;;;;;;;2.58;100.00;99735.29;52469;1256;1016474;-79
2023/02/14 03:12:03;;;;;;;41.10;21.00;;;;;;;2.58;100.00;99732.90;52490;1256;1058349;-77
2023/02/14 03:14:34;;;;;;;36.20;18.60;;;;;;;2.58;100.00;99725.70;52537;1256;1050403;-79
2023/02/14 03:17:26;;;;;;;36.70;20.40;;;;;;;2.60;100.00;99723.77;52510;1251;1059249;-79
2023/02/14 03:20:16;;;;;;;32.20;18.50;;;;;;;2.60;100.00;99723.44;52362;1252;1058225;-77
2023/02/14 03:23:01;;;;;;;34.30;18.50;;;;;;;2.58;100.00;99726.31;52518;1258;1060001;-77
2023/02/14 03:25:50;;;;;;;31.20;16.50;;;;;;;2.59;100.00;99719.61;52528;1251;1061090;-78
2023/02/14 03:28:20;;;;;;;28.40;16.90;;;;;;;2.56;100.00;99718.09;52502;1256;1061124;-79
2023/02/14 03:31:14;;;;;;;29.30;18.00;;;;;;;2.56;100.00;99717.23;52537;1251;1016053;-79
2023/02/14 03:33:49;;;;;;;31.00;19.70;;;;;;;2.56;100.00;99716.59;52507;1257;1061026;-79
2023/02/14 03:36:20;;;;;;;29.30;17.50;;;;;;;2.53;100.00;99717.34;52570;1254;1049801;-78
2023/02/14 03:39:07;;;;;;;26.70;15.70;;;;;;;2.51;100.00;99720.86;52555;1251;1059715;-76
2023/02/14 03:41:40;;;;;;;28.90;16.40;;;;;;;2.49;100.00;99724.14;52529;1254;1058269;-79
2023/02/14 03:44:09;;;;;;;31.30;17.60;;;;;;;2.45;100.00;99728.77;52483;1254;1059212;-79
2023/02/14 03:46:45;;;;;;;33.90;18.90;;;;;;;2.44;100.00;99728.88;52444;1254;1016355;-79
2023/02/14 03:49:14;;;;;;;32.10;19.60;;;;;;;2.42;100.00;99728.08;52530;1257;1060318;-77
2023/02/14 03:51:41;;;;;;;;;;;;;;;2.39;100.00;99725.85;52511;1252;1016424;-79
2023/02/14 03:54:09;;;;;;;41.90;21.40;;;;;;;2.35;100.00;99733.53;52410;1260;1017966;-77
2023/02/14 03:56:45;;;;;;;45.60;24.50;;;;;;;2.30;100.00;99737.49;52549;1257;1072314;-79
2023/02/14 03:59:14;;;;;;;41.90;24.30;;;;;;;2.27;100.00;99737.53;52445;1254;1092762;-79
2023/02/14 04:01:45;;;;;;;30.50;17.00;;;;;;;2.25;100.00;99738.09;52526;1254;1016268;-77
2023/02/14 04:04:13;;;;;;;37.70;20.10;;;;;;;2.23;100.00;99733.73;52527;1256;1072784;-77
2023/02/14 04:06:40;;;;;;;40.70;21.40;;;;;;;2.20;100.00;99738.74;52576;1251;1015950;-78
2023/02/14 04:09:07;;;;;;;39.40;20.30;;;;;;;2.17;100.00;99739.79;52403;1257;1018390;-77
2023/02/14 04:11:34;;;;;;;36.20;20.40;;;;;;;2.14;100.00;99738.91;52551;1256;1069271;-79
2023/02/14 04:14:01;;;;;;;37.80;20.10;;;;;;;2.09;100.00;99740.41;52485;1257;1016042;-77
2023/02/14 04:16:28;;;;;;;39.50;19.80;;;;;;;2.08;100.00;99738.99;52512;1257;1073332;-79
2023/02/14 04:21:40;;;;;;;62.30;27.50;;;;;;;2.02;100.00;99735.00;52629;1251;1050569;-78
2023/02/14 04:24:07;;;;;;;49.10;26.70;;;;;;;1.98;100.00;99739.39;52470;1257;1015987;-79
2023/02/14 04:26:34;;;;;;;44.10;22.90;;;;;;;1.95;100.00;99745.94;52591;1257;1061042;-80
2023/02/14 04:29:00;;;;;;;50.20;25.50;;;;;;;1.94;100.00;99746.05;52541;1256;1016410;-77
2023/02/14 04:31:27;;;;;;;44.80;21.10;;;;;;;1.93;100.00;99744.30;52456;1255;1073068;-79
2023/02/14 04:33:54;;;;;;;44.00;21.50;;;;;;;1.91;100.00;99739.22;52539;1256;1016280;-79
2023/02/14 04:36:20;;;;;;;55.10;23.60;;;;;;;1.92;100.00;99742.98;52525;1258;1069756;-77
2023/02/14 04:38:47;;;;;;;51.30;24.00;;;;;;;1.90;100.00;99748.93;52501;1251;1016225;-80
2023/02/14 04:41:13;;;;;;;55.50;27.60;;;;;;;1.88;100.00;99746.70;52516;1256;1071488;-77
2023/02/14 04:43:40;;;;;;;44.50;24.80;;;;;;;1.88;100.00;99745.73;52531;1252;1016019;-79
2023/02/14 04:46:07;;;;;;;38.50;21.60;;;;;;;1.88;100.00;99747.56;52478;1251;1053598;-80
2023/02/14 04:48:33;;;;;;;36.40;19.60;;;;;;;1.88;100.00;99748.43;52484;1251;1016165;-79
2023/02/14 04:51:00;;;;;;;41.10;20.50;;;;;;;1.87;100.00;99748.52;52560;1252;1060902;-77
2023/02/14 04:53:26;;;;;;;33.00;17.20;;;;;;;1.83;100.00;99752.39;52511;1251;1015978;-79
2023/02/14 04:55:53;;;;;;;35.80;18.50;;;;;;;1.81;100.00;99755.33;52476;1255;1072355;-77
2023/02/14 04:58:20;;;;;;;31.20;16.40;;;;;;;1.80;100.00;99760.41;52551;1251;1016571;-79
2023/02/14 05:00:47;;;;;;;30.40;16.00;;;;;;;1.79;100.00;99757.20;52523;1251;1072654;-79
2023/02/14 05:03:14;;;;;;;45.80;25.90;;;;;;;1.78;100.00;99763.23;52523;1257;1016447;-77
2023/02/14 05:05:40;;;;;;;37.00;20.50;;;;;;;1.78;100.00;99770.07;52506;1257;1070318;-77
2023/02/14 05:08:07;;;;;;;39.40;20.80;;;;;;;1.75;100.00;99770.98;52513;1257;1018079;-77
2023/02/14 05:10:33;;;;;;;37.40;19.10;;;;;;;1.74;100.00;99768.32;52556;1257;1043280;-77
2023/02/14 05:13:00;;;;;;;31.00;17.50;;;;;;;1.76;100.00;99766.41;52560;1251;1015835;-77
2023/02/14 05:15:27;;;;;;;35.50;19.90;;;;;;;1.77;100.00;99767.98;52492;1251;1060859;-76
2023/02/14 05:17:54;;;;;;;35.40;18.20;;;;;;;1.76;100.00;99773.73;52570;1257;1018350;-79
2023/02/14 05:20:20;;;;;;;29.90;16.00;;;;;;;1.76;100.00;99768.80;52489;1251;1073131;-79
2023/02/14 05:22:47;;;;;;;31.40;14.40;;;;;;;1.75;100.00;99766.39;52516;1256;1015710;-77
2023/02/14 05:25:14;;;;;;;26.70;15.50;;;;;;;1.75;100.00;99767.96;52537;1258;1068783;-79
2023/02/14 05:27:40;;;;;;;28.60;14.80;;;;;;;1.72;100.00;99772.98;52540;1251;1016144;-77
2023/02/14 05:30:08;;;;;;;32.10;17.50;;;;;;;1.67;100.00;99772.48;52499;1258;1071187;-80
2023/02/14 05:32:35;;;;;;;37.60;21.10;;;;;;;1.68;100.00;99774.51;52516;1251;1016089;-77
2023/02/14 05:35:02;;;;;;;34.30;18.90;;;;;;;1.71;100.00;99776.79;52544;1257;1016347;-77
2023/02/14 05:37:29;;;;;;;43.10;21.30;;;;;;;1.69;100.00;99781.27;52510;1251;1053331;-77
2023/02/14 05:39:55;;;;;;;41.10;22.50;;;;;;;1.68;100.00;99777.47;52499;1258;1016250;-79
2023/02/14 05:42:22;;;;;;;41.40;23.40;;;;;;;1.71;100.00;99777.92;52568;1251;1060583;-78
2023/02/14 05:44:49;;;;;;;50.20;27.00;;;;;;;1.70;100.00;99783.70;52550;1251;1016234;-77
2023/02/14 05:47:16;;;;;;;40.10;23.10;;;;;;;1.71;100.00;99783.95;52569;1254;1071398;-79
2023/02/14 05:49:43;;;;;;;60.40;32.80;;;;;;;1.71;100.00;99785.71;52506;1251;1019064;-77
2023/02/14 05:52:09;;;;;;;53.70;29.60;;;;;;;1.72;100.00;99786.18;52484;1252;1072740;-80
2023/02/14 05:54:36;;;;;;;49.80;28.50;;;;;;;1.72;100.00;99784.54;52677;1251;1015963;-79
2023/02/14 05:57:03;;;;;;;41.60;24.10;;;;;;;1.68;100.00;99785.89;52758;1251;1073358;-79
2023/02/14 05:59:29;;;;;;;46.30;28.10;;;;;;;1.64;100.00;99791.15;52585;1256;1016019;-77
2023/02/14 06:01:56;;;;;;;47.50;26.80;;;;;;;1.64;100.00;99797.20;52551;1251;1049678;-77
2023/02/14 06:04:23;;;;;;;45.70;25.30;;;;;;;1.65;100.00;99796.98;52504;1251;1016088;-79
2023/02/14 06:06:49;;;;;;;51.70;26.30;;;;;;;1.63;100.00;99795.73;52482;1251;1062240;-77
2023/02/14 06:09:16;;;;;;;52.40;28.80;;;;;;;1.65;100.00;99796.79;52564;1254;1016020;-79
2023/02/14 06:11:43;;;;;;;45.70;23.80;;;;;;;1.65;100.00;99792.55;52672;1251;1075443;-78
2023/02/14 06:14:09;;;;;;;51.70;27.20;;;;;;;1.64;100.00;99796.56;52708;1251;1015741;-77
2023/02/14 06:16:36;;;;;;;49.90;27.50;;;;;;;1.64;100.00;99805.45;52574;1251;1070893;-77
2023/02/14 06:19:03;;;;;;;51.30;27.30;;;;;;;1.63;100.00;99800.25;52620;1254;1016367;-77
2023/02/14 06:21:29;;;;;;;56.70;29.60;;;;;;;1.64;100.00;99798.67;52514;1251;1071901;-80
2023/02/14 06:23:56;;;;;;;58.60;31.70;;;;;;;1.67;100.00;99800.14;52497;1258;1016407;-76
2023/02/14 06:26:26;;;;;;;73.80;40.70;;;;;;;1.69;100.00;99798.07;52503;1251;1052519;-79
2023/02/14 06:28:57;;;;;;;66.30;37.70;;;;;;;1.69;100.00;99796.06;52507;1257;1050914;-78
2023/02/14 06:31:24;;;;;;;128.80;58.20;;;;;;;1.72;100.00;99795.10;52524;1257;1050941;-80
2023/02/14 06:33:51;;;;;;;104.90;49.80;;;;;;;1.74;100.00;99786.13;52621;1252;1018465;-77
2023/02/14 06:36:18;;;;;;;77.00;38.20;;;;;;;1.72;100.00;99785.89;52525;1251;1058308;-77
2023/02/14 06:38:46;;;;;;;136.90;50.00;;;;;;;1.71;100.00;99788.43;52524;1252;1016174;-79
2023/02/14 06:41:15;;;;;;;87.10;37.90;;;;;;;1.69;100.00;99792.60;52488;1257;1075133;-77
2023/02/14 06:43:43;;;;;;;75.20;33.00;;;;;;;1.69;100.00;99790.09;52409;1251;1016296;-77
2023/02/14 06:46:10;;;;;;;97.70;42.50;;;;;;;1.70;100.00;99789.02;52422;1251;1015487;-77
2023/02/14 06:48:36;;;;;;;83.50;40.20;;;;;;;1.72;100.00;99787.82;52528;1251;1072023;-79
2023/02/14 06:51:03;;;;;;;71.40;35.30;;;;;;;1.72;100.00;99789.19;52526;1251;1016416;-79
2023/02/14 06:53:30;;;;;;;82.70;39.60;;;;;;;1.70;100.00;99787.60;52538;1255;1073255;-80
2023/02/14 06:55:56;;;;;;;81.60;42.50;;;;;;;1.72;100.00;99789.59;53060;1254;1017039;-81
2023/02/14 06:58:23;;;;;;;86.70;44.70;;;;;;;1.75;100.00;99792.09;52761;1251;1051721;-79
2023/02/14 07:00:50;;;;;;;86.10;45.80;;;;;;;1.76;100.00;99795.15;52611;1251;1016232;-77
2023/02/14 07:03:17;;;;;;;89.80;46.00;;;;;;;1.78;100.00;99796.80;52615;1251;1058715;-80
2023/02/14 07:05:44;;;;;;;102.60;50.90;;;;;;;1.82;100.00;99794.81;53049;1251;1016675;-80
2023/02/14 07:08:10;;;;;;;94.40;46.90;;;;;;;1.84;100.00;99800.06;52940;1251;1072984;-80
2023/02/14 07:10:37;;;;;;;101.90;48.70;;;;;;;1.85;100.00;99797.38;52697;1251;1018728;-80
2023/02/14 07:13:04;;;;;;;88.50;45.70;;;;;;;1.87;100.00;99797.75;52804;1257;1070186;-77
2023/02/14 07:15:30;;;;;;;87.80;43.50;;;;;;;1.90;100.00;99797.25;53281;1251;1016333;-80
2023/02/14 07:17:57;;;;;;;84.00;43.90;;;;;;;1.93;100.00;99795.48;53303;1251;1070912;-78
2023/02/14 07:20:24;;;;;;;89.20;45.00;;;;;;;1.97;100.00;99793.38;53429;1255;1016105;-80
2023/02/14 07:22:51;;;;;;;89.70;48.30;;;;;;;2.01;100.00;99792.73;52635;1252;1050875;-77
2023/02/14 07:25:17;;;;;;;92.70;50.00;;;;;;;2.05;100.00;99789.72;52879;1253;1016746;-80
2023/02/14 07:27:44;;;;;;;85.20;45.80;;;;;;;2.11;100.00;99787.58;53261;1251;1058765;-79
2023/02/14 07:30:11;;;;;;;90.60;48.80;;;;;;;2.13;100.00;99790.98;52857;1251;1016042;-77
2023/02/14 07:32:38;;;;;;;76.20;43.50;;;;;;;2.10;100.00;99796.41;52716;1251;1073046;-78
2023/02/14 07:35:05;;;;;;;85.20;47.60;;;;;;;2.12;100.00;99795.66;52747;1251;1016466;-80
2023/02/14 07:37:33;;;;;;;90.00;52.00;;;;;;;2.15;100.00;99795.27;53564;1251;1068581;-82
2023/02/14 07:39:59;;;;;;;66.70;40.10;;;;;;;2.18;100.00;99793.21;52793;1251;1017757;-80
2023/02/14 07:42:26;;;;;;;74.70;44.00;;;;;;;2.20;100.00;99792.23;52681;1257;1072927;-77
2023/02/14 07:44:53;;;;;;;61.20;36.00;;;;;;;2.25;100.00;99787.48;52564;1251;1016310;-80
2023/02/14 07:47:20;;;;;;;63.00;36.50;;;;;;;2.29;100.00;99788.46;53709;1251;1051105;-77
2023/02/14 07:49:46;;;;;;;86.80;49.50;;;;;;;2.33;100.00;99792.69;52679;1251;1016413;-80
2023/02/14 07:52:13;;;;;;;89.00;54.50;;;;;;;2.37;100.00;99792.73;52632;1251;1058882;-80
2023/02/14 07:54:40;;;;;;;73.00;43.90;;;;;;;2.40;100.00;99793.38;53667;1251;1015694;-78
2023/02/14 07:57:06;;;;;;;57.70;31.90;;;;;;;2.41;100.00;99796.14;54092;1251;1073059;-80
2023/02/14 08:04:07;;;;;;;96.80;45.50;;;;;;;2.49;100.00;99805.48;104406;1291;600427;-77
2023/02/14 08:06:33;;;;;;;137.50;55.00;;;;;;;2.46;100.00;99809.83;107470;1262;57333;-79
2023/02/14 08:09:00;;;;;;;140.20;59.90;;;;;;;2.46;100.00;99805.55;105803;1268;59732;-80
2023/02/14 08:14:11;;;;;;;130.00;52.40;;;;;;;2.52;100.00;99804.04;105826;1263;70968;-80
2023/02/14 08:16:38;;;;;;;137.80;62.50;;;;;;;2.53;100.00;99806.73;107492;1264;181748;-77
2023/02/14 08:19:05;;;;;;;121.50;61.00;;;;;;;2.59;100.00;99804.14;106174;1258;59146;-80
2023/02/14 08:21:31;;;;;;;118.80;65.30;;;;;;;2.63;100.00;99803.81;105925;1263;60780;-80
2023/02/14 08:23:58;;;;;;;158.70;71.80;;;;;;;2.66;100.00;99808.48;105904;1259;59276;-80
2023/02/14 08:26:24;;;;;;;158.90;76.00;;;;;;;2.70;100.00;99807.49;107494;1259;58703;-80
2023/02/14 08:28:51;;;;;;;169.10;80.60;;;;;;;2.74;100.00;99808.88;106311;1257;59709;-77
2023/02/14 08:31:25;;;;;;;159.50;77.10;;;;;;;2.75;100.00;99812.06;105852;1263;59728;-80
2023/02/14 08:33:52;;;;;;;130.00;65.80;;;;;;;2.75;100.00;99808.73;106107;1260;59589;-80
2023/02/14 08:36:18;;;;;;;170.20;81.00;;;;;;;2.79;100.00;99808.41;107518;1259;59614;-77
2023/02/14 08:38:46;;;;;;;219.40;112.50;;;;;;;2.84;100.00;99815.76;106255;1258;71076;-79
2023/02/14 08:41:14;;;;;;;186.40;93.50;;;;;;;2.85;100.00;99821.83;106080;1259;70816;-80
2023/02/14 08:43:41;;;;;;;166.80;88.90;;;;;;;2.88;100.00;99823.14;105806;1259;59766;-77
2023/02/14 08:46:08;;;;;;;153.20;81.20;;;;;;;2.91;100.00;99822.20;106067;1261;59620;-76
2023/02/14 08:48:34;;;;;;;137.00;72.60;;;;;;;2.93;100.00;99829.52;106707;1257;72207;-78
2023/02/14 08:51:12;;;;;;;132.10;75.60;;;;;;;2.95;100.00;99829.37;106223;1259;71197;-79
2023/02/14 08:53:39;;;;;;;139.30;73.40;;;;;;;3.02;100.00;99833.41;106365;1263;70772;-76
2023/02/14 08:56:08;;;;;;;137.70;73.50;;;;;;;3.03;100.00;99830.71;107146;1258;59582;-79
2023/02/14 08:58:34;;;;;;;121.60;65.30;;;;;;;3.05;100.00;99829.90;107708;1259;60310;-76
2023/02/14 09:01:06;;;;;;;137.10;78.50;;;;;;;3.09;100.00;99826.27;105947;1259;59640;-76
2023/02/14 09:03:33;;;;;;;143.00;81.00;;;;;;;3.15;100.00;99824.50;106181;1261;70154;-79
2023/02/14 09:06:06;;;;;;;133.40;77.60;;;;;;;3.22;100.00;99823.97;107234;1258;71698;-76
2023/02/14 09:08:33;;;;;;;145.50;83.20;;;;;;;3.23;100.00;99829.83;106270;1259;60788;-76
2023/02/14 09:11:17;;;;;;;169.10;104.40;;;;;;;3.23;100.00;99827.89;106242;1259;59662;-76
2023/02/14 09:13:44;;;;;;;184.90;105.30;;;;;;;3.34;100.00;99826.09;105938;1257;73021;-77
2023/02/14 09:16:11;;;;;;;145.60;83.90;;;;;;;3.44;100.00;99831.52;107440;1257;71087;-77
2023/02/14 09:18:38;;;;;;;92.00;51.60;;;;;;;3.54;100.00;99828.38;108884;1259;71984;-80
2023/02/14 09:21:17;;;;;;;77.60;42.40;;;;;;;3.52;100.00;99829.88;106972;1259;59670;-80
2023/02/14 09:23:44;;;;;;;82.70;48.50;;;;;;;3.56;100.00;99831.19;106306;1263;59572;-78
2023/02/14 09:26:11;;;;;;;80.90;45.30;;;;;;;3.55;100.00;99832.38;107204;1259;59513;-77
2023/02/14 09:28:38;;;;;;;74.30;40.20;;;;;;;3.61;100.00;99831.26;107017;1259;70024;-78
2023/02/14 09:31:12;;;;;;;66.90;39.20;;;;;;;3.66;100.00;99831.63;105937;1262;72224;-80
2023/02/14 09:33:39;;;;;;;69.00;41.00;;;;;;;3.73;100.00;99834.95;105870;1259;59667;-80
2023/02/14 09:38:51;;;;;;;43.70;27.80;;;;;;;3.81;100.00;99837.21;106356;1261;72029;-77
2023/02/14 09:41:38;;;;;;;42.10;27.50;;;;;;;3.85;100.00;99839.12;106084;1260;59276;-80
2023/02/14 09:44:12;;;;;;;53.30;29.40;;;;;;;3.93;100.00;99843.11;106467;1256;72514;-77
2023/02/14 09:46:44;;;;;;;31.40;21.20;;;;;;;3.94;100.00;99847.30;108325;1254;59291;-79
2023/02/14 09:49:12;;;;;;;32.70;20.70;;;;;;;3.96;100.00;99853.33;106463;1256;59494;-77
2023/02/14 09:51:39;;;;;;;47.40;19.30;;;;;;;3.96;100.00;99851.35;106835;1256;72975;-79
2023/02/14 09:54:11;;;;;;;36.80;19.20;;;;;;;4.04;100.00;99854.44;106184;1261;72288;-80
2023/02/14 09:56:56;;;;;;;39.90;24.80;;;;;;;4.10;100.00;99854.37;108275;1254;72132;-79
2023/02/14 09:59:28;;;;;;;36.20;21.70;;;;;;;4.18;100.00;99849.81;106171;1258;59642;-80
2023/02/14 10:02:08;;;;;;;28.70;15.10;;;;;;;4.23;100.00;99847.70;107002;1255;60359;-77
2023/02/14 10:04:41;;;;;;;24.60;15.30;;;;;;;4.14;100.00;99841.77;106336;1262;73049;-77
2023/02/14 10:07:26;;;;;;;33.30;18.50;;;;;;;4.12;100.00;99843.04;108530;1258;70911;-79
2023/02/14 10:10:18;;;;;;;27.00;17.60;;;;;;;4.16;100.00;99844.38;106149;1259;72629;-76
2023/02/14 10:13:20;;;;;;;28.90;17.60;;;;;;;4.24;100.00;99842.55;106208;1256;59644;-79
2023/02/14 10:15:49;;;;;;;31.40;15.40;;;;;;;4.29;100.00;99849.73;107355;1254;60270;-79
2023/02/14 10:18:21;;;;;;;27.70;16.10;;;;;;;4.37;100.00;99844.75;106974;1258;73320;-78
2023/02/14 10:20:53;;;;;;;35.60;21.90;;;;;;;4.39;100.00;99839.81;106230;1259;70585;-76
2023/02/14 10:23:29;;;;;;;37.10;24.10;;;;;;;4.39;100.00;99845.15;106696;1259;71420;-81
2023/02/14 10:25:58;;;;;;;33.50;22.80;;;;;;;4.36;100.00;99844.66;106927;1254;59537;-79
2023/02/14 10:28:32;;;;;;;45.20;25.60;;;;;;;4.34;100.00;99844.03;106598;1257;59599;-79
2023/02/14 10:31:03;;;;;;;28.60;16.80;;;;;;;4.33;100.00;99844.85;106861;1258;72433;-79
2023/02/14 10:33:30;;;;;;;46.40;24.40;;;;;;;4.42;100.00;99838.76;106197;1259;71634;-77
2023/02/14 10:36:04;;;;;;;35.00;21.30;;;;;;;4.50;100.00;99835.14;107217;1256;71099;-77
2023/02/14 10:38:43;;;;;;;30.00;16.40;;;;;;;4.53;100.00;99836.52;106687;1257;59699;-77
2023/02/14 10:42:00;;;;;;;39.90;21.40;;;;;;;4.59;100.00;99836.89;106184;1254;59926;-80
2023/02/14 10:44:40;;;;;;;33.20;18.10;;;;;;;4.63;100.00;99831.39;105959;1258;72905;-80
2023/02/14 10:47:37;;;;;;;29.20;15.70;;;;;;;4.60;100.00;99829.80;108475;1253;70943;-79
2023/02/14 10:50:13;;;;;;;28.10;16.00;;;;;;;4.51;100.00;99830.69;106249;1253;72889;-79
2023/02/14 10:53:17;;;;;;;28.20;17.00;;;;;;;4.57;100.00;99834.87;106166;1261;59675;-78
2023/02/14 10:55:56;;;;;;;30.00;17.00;;;;;;;4.62;100.00;99827.50;107372;1253;60288;-79
2023/02/14 10:58:23;;;;;;;28.20;15.40;;;;;;;4.67;100.00;99823.68;106344;1258;72894;-76
2023/02/14 11:01:09;;;;;;;29.90;17.30;;;;;;;4.82;100.00;99822.32;106431;1256;71070;-79
2023/02/14 11:03:38;;;;;;;35.00;20.70;;;;;;;4.82;100.00;99820.98;106068;1256;71585;-76
2023/02/14 11:06:04;;;;;;;28.20;17.90;;;;;;;4.80;100.00;99817.88;107076;1254;60040;-77
2023/02/14 11:08:35;;;;;;;31.30;18.60;;;;;;;4.87;100.00;99812.89;106528;1258;60295;-79
2023/02/14 11:11:06;;;;;;;25.20;15.90;;;;;;;4.71;100.00;99811.47;106556;1254;72954;-77
2023/02/14 11:13:37;;;;;;;37.30;19.00;;;;;;;4.75;100.00;99809.27;106174;1253;71049;-80
2023/02/14 11:16:09;;;;;;;30.80;16.60;;;;;;;4.77;100.00;99808.20;107540;1256;71371;-77
2023/02/14 11:18:36;;;;;;;25.60;14.60;;;;;;;4.84;100.00;99803.27;106596;1258;59530;-77
2023/02/14 11:21:03;;;;;;;26.40;14.20;;;;;;;4.79;100.00;99796.08;106298;1260;59661;-79
2023/02/14 11:23:36;;;;;;;24.60;16.60;;;;;;;4.81;100.00;99799.10;106212;1255;72432;-77
2023/02/14 11:26:06;;;;;;;27.80;14.10;;;;;;;4.87;100.00;99795.45;107611;1258;71046;-79
2023/02/14 11:28:33;;;;;;;28.80;17.40;;;;;;;4.82;100.00;99794.84;106618;1258;72411;-80
2023/02/14 11:30:59;;;;;;;37.90;21.60;;;;;;;4.81;100.00;99798.42;106019;1258;59739;-79
2023/02/14 11:33:36;;;;;;;34.40;18.80;;;;;;;4.94;100.00;99790.93;106289;1260;59509;-79
2023/02/14 11:36:04;;;;;;;27.60;17.90;;;;;;;4.96;100.00;99791.30;107517;1253;71582;-79
2023/02/14 11:38:35;;;;;;;33.20;18.90;;;;;;;4.86;100.00;99793.66;106985;1257;70151;-79
2023/02/14 11:41:02;;;;;;;36.70;22.10;;;;;;;4.81;100.00;99793.02;107854;1258;72711;-80
2023/02/14 11:43:29;;;;;;;29.00;17.90;;;;;;;4.93;100.00;99790.05;107869;1254;59527;-77
2023/02/14 11:46:15;;;;;;;21.70;15.30;;;;;;;4.99;100.00;99787.70;107967;1254;59108;-77